sensor_id;sensor_type;location;lat;lon;timestamp;P1;durP1;ratioP1;P2;durP2;ratioP2
39140;SDS011;24875;48.436;10.298;2023-03-31T06:11:40;20.50;;;6.30;;
39140;SDS011;24875;48.436;10.298;2023-03-31T06:14:06;20.35;;;6.70;;
39140;SDS011;24875;48.436;10.298;2023-03-31T06:16:33;17.48;;;7.55;;
39140;SDS011;24875;48.436;10.298;2023-03-31T06:18:59;9.50;;;5.53;;
39140;SDS011;24875;48.436;10.298;2023-03-31T06:21:25;16.07;;;5.77;;
39140;SDS011;24875;48.436;10.298;2023-03-31T06:23:52;18.73;;;6.00;;
39140;SDS011;24875;48.436;10.298;2023-03-31T06:26:20;18.67;;;6.17;;
39140;SDS011;24875;48.436;10.298;2023-03-31T06:28:48;11.73;;;6.03;;
39140;SDS011;24875;48.436;10.298;2023-03-31T06:31:15;14.10;;;5.97;;
39140;SDS011;24875;48.436;10.298;2023-03-31T06:33:43;15.57;;;6.60;;
39140;SDS011;24875;48.436;10.298;2023-03-31T06:36:11;27.00;;;6.47;;
39140;SDS011;24875;48.436;10.298;2023-03-31T06:38:39;14.70;;;6.00;;
39140;SDS011;24875;48.436;10.298;2023-03-31T06:41:07;12.27;;;5.70;;
39140;SDS011;24875;48.436;10.298;2023-03-31T06:43:36;13.20;;;6.30;;
39140;SDS011;24875;48.436;10.298;2023-03-31T06:46:04;20.03;;;9.27;;
39140;SDS011;24875;48.436;10.298;2023-03-31T06:48:31;20.50;;;8.60;;
39140;SDS011;24875;48.436;10.298;2023-03-31T06:50:59;18.93;;;7.30;;
39140;SDS011;24875;48.436;10.298;2023-03-31T06:53:26;19.17;;;8.30;;
39140;SDS011;24875;48.436;10.298;2023-03-31T06:55:53;18.60;;;7.77;;
39140;SDS011;24875;48.436;10.298;2023-03-31T06:58:20;13.03;;;7.10;;
39140;SDS011;24875;48.436;10.298;2023-03-31T07:00:46;17.30;;;6.73;;
39140;SDS011;24875;48.436;10.298;2023-03-31T07:03:14;15.23;;;6.60;;
39140;SDS011;24875;48.436;10.298;2023-03-31T07:05:46;10.60;;;5.90;;
39140;SDS011;24875;48.436;10.298;2023-03-31T07:08:13;18.30;;;5.73;;
39140;SDS011;24875;48.436;10.298;2023-03-31T07:10:41;13.10;;;5.43;;
39140;SDS011;24875;48.436;10.298;2023-03-31T07:13:10;12.70;;;5.90;;
39140;SDS011;24875;48.436;10.298;2023-03-31T07:15:37;15.47;;;6.60;;
39140;SDS011;24875;48.436;10.298;2023-03-31T07:18:03;17.03;;;7.03;;
39140;SDS011;24875;48.436;10.298;2023-03-31T07:20:32;14.33;;;5.83;;
39140;SDS011;24875;48.436;10.298;2023-03-31T07:22:58;13.00;;;5.10;;
39140;SDS011;24875;48.436;10.298;2023-03-31T07:25:25;12.67;;;5.93;;
39140;SDS011;24875;48.436;10.298;2023-03-31T07:27:51;10.33;;;5.33;;
39140;SDS011;24875;48.436;10.298;2023-03-31T07:30:18;12.97;;;5.30;;
39140;SDS011;24875;48.436;10.298;2023-03-31T07:32:46;15.33;;;5.77;;
39140;SDS011;24875;48.436;10.298;2023-03-31T07:35:13;11.73;;;5.53;;
39140;SDS011;24875;48.436;10.298;2023-03-31T07:37:43;13.60;;;5.47;;
39140;SDS011;24875;48.436;10.298;2023-03-31T07:40:11;12.43;;;5.47;;
39140;SDS011;24875;48.436;10.298;2023-03-31T07:42:40;14.90;;;5.87;;
39140;SDS011;24875;48.436;10.298;2023-03-31T07:45:09;16.97;;;5.67;;
39140;SDS011;24875;48.436;10.298;2023-03-31T07:47:35;11.87;;;4.97;;
39140;SDS011;24875;48.436;10.298;2023-03-31T07:50:02;17.00;;;6.80;;
39140;SDS011;24875;48.436;10.298;2023-03-31T07:52:29;13.77;;;5.97;;
39140;SDS011;24875;48.436;10.298;2023-03-31T07:54:57;14.23;;;4.83;;
39140;SDS011;24875;48.436;10.298;2023-03-31T07:57:23;11.37;;;5.97;;
39140;SDS011;24875;48.436;10.298;2023-03-31T07:59:50;10.97;;;5.50;;
39140;SDS011;24875;48.436;10.298;2023-03-31T08:02:16;10.17;;;4.33;;
39140;SDS011;24875;48.436;10.298;2023-03-31T08:04:44;8.30;;;3.07;;
39140;SDS011;24875;48.436;10.298;2023-03-31T08:07:13;9.40;;;2.90;;
39140;SDS011;24875;48.436;10.298;2023-03-31T08:09:42;6.97;;;3.77;;
39140;SDS011;24875;48.436;10.298;2023-03-31T08:12:11;3.50;;;2.50;;
39140;SDS011;24875;48.436;10.298;2023-03-31T08:14:39;6.97;;;3.83;;
39140;SDS011;24875;48.436;10.298;2023-03-31T08:17:05;8.33;;;4.40;;
39140;SDS011;24875;48.436;10.298;2023-03-31T08:19:32;10.70;;;4.13;;
39140;SDS011;24875;48.436;10.298;2023-03-31T08:21:58;8.13;;;4.13;;
39140;SDS011;24875;48.436;10.298;2023-03-31T08:24:25;7.70;;;3.37;;
39140;SDS011;24875;48.436;10.298;2023-03-31T08:26:51;10.80;;;2.90;;
39140;SDS011;24875;48.436;10.298;2023-03-31T08:29:19;6.73;;;2.80;;
39140;SDS011;24875;48.436;10.298;2023-03-31T08:31:45;6.57;;;2.80;;
39140;SDS011;24875;48.436;10.298;2023-03-31T08:34:12;4.77;;;2.40;;
39140;SDS011;24875;48.436;10.298;2023-03-31T08:36:39;4.70;;;2.20;;
39140;SDS011;24875;48.436;10.298;2023-03-31T08:39:06;5.27;;;2.07;;
39140;SDS011;24875;48.436;10.298;2023-03-31T08:41:36;3.90;;;1.53;;
39140;SDS011;24875;48.436;10.298;2023-03-31T08:44:10;7.43;;;2.13;;
39140;SDS011;24875;48.436;10.298;2023-03-31T08:46:42;6.67;;;1.63;;
39140;SDS011;24875;48.436;10.298;2023-03-31T08:49:11;4.00;;;1.80;;
39140;SDS011;24875;48.436;10.298;2023-03-31T08:51:42;3.63;;;2.10;;
39140;SDS011;24875;48.436;10.298;2023-03-31T08:54:14;2.40;;;1.10;;
39140;SDS011;24875;48.436;10.298;2023-03-31T08:56:45;2.50;;;1.53;;
39140;SDS011;24875;48.436;10.298;2023-03-31T08:59:16;1.80;;;1.23;;
39140;SDS011;24875;48.436;10.298;2023-03-31T09:01:48;8.83;;;3.93;;
39140;SDS011;24875;48.436;10.298;2023-03-31T09:04:21;3.17;;;1.47;;
39140;SDS011;24875;48.436;10.298;2023-03-31T09:06:55;1.93;;;1.30;;
39140;SDS011;24875;48.436;10.298;2023-03-31T09:09:31;2.37;;;1.40;;
39140;SDS011;24875;48.436;10.298;2023-03-31T09:12:09;1.53;;;1.10;;
39140;SDS011;24875;48.436;10.298;2023-03-31T09:14:40;5.10;;;1.70;;
39140;SDS011;24875;48.436;10.298;2023-03-31T09:17:14;5.68;;;1.58;;
39140;SDS011;24875;48.436;10.298;2023-03-31T09:19:47;1.85;;;0.90;;
39140;SDS011;24875;48.436;10.298;2023-03-31T09:22:19;1.27;;;1.00;;
39140;SDS011;24875;48.436;10.298;2023-03-31T09:24:49;2.20;;;1.00;;
39140;SDS011;24875;48.436;10.298;2023-03-31T09:27:21;2.17;;;1.00;;
39140;SDS011;24875;48.436;10.298;2023-03-31T09:29:54;1.70;;;0.90;;
39140;SDS011;24875;48.436;10.298;2023-03-31T09:32:26;1.43;;;1.00;;
39140;SDS011;24875;48.436;10.298;2023-03-31T09:34:55;2.63;;;1.20;;
39140;SDS011;24875;48.436;10.298;2023-03-31T09:37:29;0.50;;;0.50;;
39140;SDS011;24875;48.436;10.298;2023-03-31T09:39:58;0.73;;;0.73;;
39140;SDS011;24875;48.436;10.298;2023-03-31T09:42:26;2.10;;;1.20;;
39140;SDS011;24875;48.436;10.298;2023-03-31T09:44:52;2.40;;;1.60;;
39140;SDS011;24875;48.436;10.298;2023-03-31T09:47:20;2.90;;;1.33;;
39140;SDS011;24875;48.436;10.298;2023-03-31T09:49:54;3.38;;;1.30;;
39140;SDS011;24875;48.436;10.298;2023-03-31T09:52:24;3.05;;;1.00;;
39140;SDS011;24875;48.436;10.298;2023-03-31T09:54:54;1.00;;;0.90;;
39140;SDS011;24875;48.436;10.298;2023-03-31T09:57:24;2.83;;;0.65;;
39140;SDS011;24875;48.436;10.298;2023-03-31T09:59:53;2.33;;;1.00;;
39140;SDS011;24875;48.436;10.298;2023-03-31T10:02:34;3.20;;;0.90;;
39140;SDS011;24875;48.436;10.298;2023-03-31T10:05:04;3.35;;;1.05;;
39140;SDS011;24875;48.436;10.298;2023-03-31T10:07:32;1.20;;;0.73;;
39140;SDS011;24875;48.436;10.298;2023-03-31T10:10:00;3.10;;;0.80;;
39140;SDS011;24875;48.436;10.298;2023-03-31T10:12:27;1.23;;;0.90;;
39140;SDS011;24875;48.436;10.298;2023-03-31T10:15:01;1.58;;;0.80;;
39140;SDS011;24875;48.436;10.298;2023-03-31T10:17:43;0.95;;;0.70;;
39140;SDS011;24875;48.436;10.298;2023-03-31T10:20:16;0.85;;;0.50;;
39140;SDS011;24875;48.436;10.298;2023-03-31T10:22:50;0.70;;;0.70;;
39140;SDS011;24875;48.436;10.298;2023-03-31T10:25:17;1.38;;;0.95;;
39140;SDS011;24875;48.436;10.298;2023-03-31T10:27:47;1.10;;;0.85;;
39140;SDS011;24875;48.436;10.298;2023-03-31T10:30:18;3.83;;;0.80;;
39140;SDS011;24875;48.436;10.298;2023-03-31T10:32:50;1.02;;;1.00;;
39140;SDS011;24875;48.436;10.298;2023-03-31T10:35:20;0.50;;;0.50;;
39140;SDS011;24875;48.436;10.298;2023-03-31T10:37:50;0.60;;;0.50;;
39140;SDS011;24875;48.436;10.298;2023-03-31T10:40:21;1.42;;;0.70;;
39140;SDS011;24875;48.436;10.298;2023-03-31T10:42:57;1.48;;;0.80;;
39140;SDS011;24875;48.436;10.298;2023-03-31T10:45:27;3.25;;;0.90;;
39140;SDS011;24875;48.436;10.298;2023-03-31T10:47:57;0.50;;;0.50;;
39140;SDS011;24875;48.436;10.298;2023-03-31T10:50:26;1.75;;;0.70;;
39140;SDS011;24875;48.436;10.298;2023-03-31T10:52:59;0.95;;;0.45;;
39140;SDS011;24875;48.436;10.298;2023-03-31T10:55:30;2.05;;;0.55;;
39140;SDS011;24875;48.436;10.298;2023-03-31T10:58:02;1.25;;;0.50;;
39140;SDS011;24875;48.436;10.298;2023-03-31T11:00:43;1.13;;;0.68;;
39140;SDS011;24875;48.436;10.298;2023-03-31T11:06:33;0.93;;;0.35;;
39140;SDS011;24875;48.436;10.298;2023-03-31T11:09:28;8.95;;;0.88;;
39140;SDS011;24875;48.436;10.298;2023-03-31T11:12:04;2.45;;;0.65;;
39140;SDS011;24875;48.436;10.298;2023-03-31T11:14:39;0.80;;;0.60;;
39140;SDS011;24875;48.436;10.298;2023-03-31T11:17:19;0.47;;;0.47;;
39140;SDS011;24875;48.436;10.298;2023-03-31T11:19:57;2.78;;;0.88;;
39140;SDS011;24875;48.436;10.298;2023-03-31T11:22:36;0.80;;;0.40;;
39140;SDS011;24875;48.436;10.298;2023-03-31T11:25:13;1.95;;;0.50;;
39140;SDS011;24875;48.436;10.298;2023-03-31T11:27:51;3.55;;;0.95;;
39140;SDS011;24875;48.436;10.298;2023-03-31T11:30:29;3.50;;;0.63;;
39140;SDS011;24875;48.436;10.298;2023-03-31T11:33:04;3.35;;;1.15;;
39140;SDS011;24875;48.436;10.298;2023-03-31T11:35:51;1.55;;;0.52;;
39140;SDS011;24875;48.436;10.298;2023-03-31T11:38:39;1.85;;;0.70;;
39140;SDS011;24875;48.436;10.298;2023-03-31T11:41:18;1.60;;;0.80;;
39140;SDS011;24875;48.436;10.298;2023-03-31T11:43:46;2.90;;;0.80;;
39140;SDS011;24875;48.436;10.298;2023-03-31T11:46:15;2.30;;;0.88;;
39140;SDS011;24875;48.436;10.298;2023-03-31T11:48:47;3.58;;;1.33;;
39140;SDS011;24875;48.436;10.298;2023-03-31T11:51:23;1.83;;;0.70;;
39140;SDS011;24875;48.436;10.298;2023-03-31T11:53:54;1.30;;;0.50;;
39140;SDS011;24875;48.436;10.298;2023-03-31T11:56:32;1.27;;;0.60;;
39140;SDS011;24875;48.436;10.298;2023-03-31T11:59:01;1.13;;;0.40;;
39140;SDS011;24875;48.436;10.298;2023-03-31T12:01:29;1.67;;;0.60;;
39140;SDS011;24875;48.436;10.298;2023-03-31T12:04:07;0.90;;;0.52;;
39140;SDS011;24875;48.436;10.298;2023-03-31T12:06:42;2.17;;;1.10;;
39140;SDS011;24875;48.436;10.298;2023-03-31T12:09:12;1.27;;;0.60;;
39140;SDS011;24875;48.436;10.298;2023-03-31T12:11:45;1.25;;;0.52;;
39140;SDS011;24875;48.436;10.298;2023-03-31T12:14:23;0.57;;;0.52;;
39140;SDS011;24875;48.436;10.298;2023-03-31T12:16:55;0.57;;;0.55;;
39140;SDS011;24875;48.436;10.298;2023-03-31T12:19:26;0.95;;;0.50;;
39140;SDS011;24875;48.436;10.298;2023-03-31T12:22:02;0.20;;;0.20;;
39140;SDS011;24875;48.436;10.298;2023-03-31T12:24:33;0.30;;;0.30;;
39140;SDS011;24875;48.436;10.298;2023-03-31T12:27:02;1.43;;;0.93;;
39140;SDS011;24875;48.436;10.298;2023-03-31T12:29:36;0.30;;;0.30;;
39140;SDS011;24875;48.436;10.298;2023-03-31T12:32:08;1.30;;;0.77;;
39140;SDS011;24875;48.436;10.298;2023-03-31T12:34:41;0.30;;;0.30;;
39140;SDS011;24875;48.436;10.298;2023-03-31T12:40:22;0.30;;;0.30;;
39140;SDS011;24875;48.436;10.298;2023-03-31T12:43:06;0.40;;;0.40;;
39140;SDS011;24875;48.436;10.298;2023-03-31T12:45:45;0.30;;;0.30;;
39140;SDS011;24875;48.436;10.298;2023-03-31T12:48:23;0.50;;;0.50;;
39140;SDS011;24875;48.436;10.298;2023-03-31T12:51:14;0.30;;;0.30;;
39140;SDS011;24875;48.436;10.298;2023-03-31T12:53:58;1.50;;;0.50;;
39140;SDS011;24875;48.436;10.298;2023-03-31T12:59:31;11.80;;;0.77;;
39140;SDS011;24875;48.436;10.298;2023-03-31T13:02:16;0.40;;;0.40;;
39140;SDS011;24875;48.436;10.298;2023-03-31T13:04:47;0.40;;;0.40;;
39140;SDS011;24875;48.436;10.298;2023-03-31T13:10:22;1.15;;;0.57;;
39140;SDS011;24875;48.436;10.298;2023-03-31T13:12:57;3.63;;;0.45;;
39140;SDS011;24875;48.436;10.298;2023-03-31T13:15:27;1.48;;;0.80;;
39140;SDS011;24875;48.436;10.298;2023-03-31T13:17:55;0.93;;;0.45;;
39140;SDS011;24875;48.436;10.298;2023-03-31T13:20:25;1.88;;;0.88;;
39140;SDS011;24875;48.436;10.298;2023-03-31T13:23:00;1.48;;;0.60;;
39140;SDS011;24875;48.436;10.298;2023-03-31T13:25:43;0.30;;;0.30;;
39140;SDS011;24875;48.436;10.298;2023-03-31T13:28:23;1.55;;;0.60;;
39140;SDS011;24875;48.436;10.298;2023-03-31T13:31:03;1.77;;;0.50;;
39140;SDS011;24875;48.436;10.298;2023-03-31T13:33:31;2.15;;;0.90;;
39140;SDS011;24875;48.436;10.298;2023-03-31T13:39:07;1.10;;;0.60;;
39140;SDS011;24875;48.436;10.298;2023-03-31T13:41:52;0.60;;;0.40;;
39140;SDS011;24875;48.436;10.298;2023-03-31T13:44:34;0.80;;;0.55;;
39140;SDS011;24875;48.436;10.298;2023-03-31T13:47:37;3.03;;;0.70;;
39140;SDS011;24875;48.436;10.298;2023-03-31T13:50:29;0.68;;;0.50;;
39140;SDS011;24875;48.436;10.298;2023-03-31T13:53:06;0.43;;;0.43;;
39140;SDS011;24875;48.436;10.298;2023-03-31T13:55:59;1.83;;;0.60;;
39140;SDS011;24875;48.436;10.298;2023-03-31T13:58:43;2.00;;;0.75;;
39140;SDS011;24875;48.436;10.298;2023-03-31T14:01:39;4.72;;;0.88;;
39140;SDS011;24875;48.436;10.298;2023-03-31T14:04:24;1.00;;;0.40;;
39140;SDS011;24875;48.436;10.298;2023-03-31T14:07:06;0.95;;;0.60;;
39140;SDS011;24875;48.436;10.298;2023-03-31T14:09:35;2.08;;;0.40;;
39140;SDS011;24875;48.436;10.298;2023-03-31T14:12:21;5.10;;;0.77;;
39140;SDS011;24875;48.436;10.298;2023-03-31T14:14:56;1.40;;;0.60;;
39140;SDS011;24875;48.436;10.298;2023-03-31T14:17:25;0.40;;;0.40;;
39140;SDS011;24875;48.436;10.298;2023-03-31T14:20:05;0.43;;;0.43;;
39140;SDS011;24875;48.436;10.298;2023-03-31T14:22:46;1.55;;;0.60;;
39140;SDS011;24875;48.436;10.298;2023-03-31T14:25:18;4.93;;;0.75;;
39140;SDS011;24875;48.436;10.298;2023-03-31T14:27:56;5.20;;;1.05;;
39140;SDS011;24875;48.436;10.298;2023-03-31T14:30:32;2.30;;;0.55;;
39140;SDS011;24875;48.436;10.298;2023-03-31T14:33:10;2.85;;;0.60;;
39140;SDS011;24875;48.436;10.298;2023-03-31T14:35:50;1.70;;;0.63;;
39140;SDS011;24875;48.436;10.298;2023-03-31T14:38:22;0.68;;;0.50;;
39140;SDS011;24875;48.436;10.298;2023-03-31T14:40:52;1.85;;;0.70;;
39140;SDS011;24875;48.436;10.298;2023-03-31T14:43:25;1.00;;;0.47;;
39140;SDS011;24875;48.436;10.298;2023-03-31T14:46:00;4.90;;;1.00;;
39140;SDS011;24875;48.436;10.298;2023-03-31T14:48:27;2.25;;;0.70;;
39140;SDS011;24875;48.436;10.298;2023-03-31T14:50:55;0.70;;;0.70;;
39140;SDS011;24875;48.436;10.298;2023-03-31T14:53:24;2.28;;;0.63;;
39140;SDS011;24875;48.436;10.298;2023-03-31T14:55:52;3.03;;;0.60;;
39140;SDS011;24875;48.436;10.298;2023-03-31T14:58:25;1.85;;;0.88;;
39140;SDS011;24875;48.436;10.298;2023-03-31T15:00:54;2.72;;;0.60;;
39140;SDS011;24875;48.436;10.298;2023-03-31T15:03:22;8.43;;;0.70;;
39140;SDS011;24875;48.436;10.298;2023-03-31T15:05:54;2.05;;;0.88;;
39140;SDS011;24875;48.436;10.298;2023-03-31T15:08:22;0.32;;;0.32;;
39140;SDS011;24875;48.436;10.298;2023-03-31T15:10:50;3.27;;;0.90;;
39140;SDS011;24875;48.436;10.298;2023-03-31T15:13:29;0.30;;;0.30;;
39140;SDS011;24875;48.436;10.298;2023-03-31T15:16:00;3.20;;;0.80;;
39140;SDS011;24875;48.436;10.298;2023-03-31T15:18:46;0.50;;;0.50;;
39140;SDS011;24875;48.436;10.298;2023-03-31T15:21:18;0.93;;;0.50;;
39140;SDS011;24875;48.436;10.298;2023-03-31T15:23:46;1.10;;;0.50;;
39140;SDS011;24875;48.436;10.298;2023-03-31T15:26:17;2.00;;;0.60;;
39140;SDS011;24875;48.436;10.298;2023-03-31T15:28:48;0.60;;;0.50;;
39140;SDS011;24875;48.436;10.298;2023-03-31T15:31:19;0.30;;;0.30;;
39140;SDS011;24875;48.436;10.298;2023-03-31T15:33:47;1.23;;;0.50;;
39140;SDS011;24875;48.436;10.298;2023-03-31T15:36:14;3.63;;;0.90;;
39140;SDS011;24875;48.436;10.298;2023-03-31T15:38:40;3.53;;;0.83;;
39140;SDS011;24875;48.436;10.298;2023-03-31T15:41:11;0.47;;;0.47;;
39140;SDS011;24875;48.436;10.298;2023-03-31T15:43:44;1.03;;;0.40;;
39140;SDS011;24875;48.436;10.298;2023-03-31T15:46:15;1.30;;;0.80;;
39140;SDS011;24875;48.436;10.298;2023-03-31T15:48:49;2.00;;;0.63;;
39140;SDS011;24875;48.436;10.298;2023-03-31T15:51:20;1.23;;;0.40;;
39140;SDS011;24875;48.436;10.298;2023-03-31T15:53:50;16.87;;;0.80;;
39140;SDS011;24875;48.436;10.298;2023-03-31T15:56:27;1.87;;;0.73;;
39140;SDS011;24875;48.436;10.298;2023-03-31T15:58:57;1.80;;;0.70;;
39140;SDS011;24875;48.436;10.298;2023-03-31T16:01:28;0.57;;;0.40;;
39140;SDS011;24875;48.436;10.298;2023-03-31T16:03:58;1.90;;;0.67;;
39140;SDS011;24875;48.436;10.298;2023-03-31T16:06:34;1.57;;;0.67;;
39140;SDS011;24875;48.436;10.298;2023-03-31T16:09:07;2.97;;;0.90;;
39140;SDS011;24875;48.436;10.298;2023-03-31T16:11:37;1.53;;;0.80;;
39140;SDS011;24875;48.436;10.298;2023-03-31T16:14:10;1.73;;;0.70;;
39140;SDS011;24875;48.436;10.298;2023-03-31T16:16:44;2.03;;;1.00;;
39140;SDS011;24875;48.436;10.298;2023-03-31T16:19:14;3.13;;;0.93;;
39140;SDS011;24875;48.436;10.298;2023-03-31T16:21:42;1.77;;;1.00;;
39140;SDS011;24875;48.436;10.298;2023-03-31T16:24:14;0.50;;;0.50;;
39140;SDS011;24875;48.436;10.298;2023-03-31T16:26:41;2.97;;;0.70;;
39140;SDS011;24875;48.436;10.298;2023-03-31T16:29:08;0.73;;;0.53;;
39140;SDS011;24875;48.436;10.298;2023-03-31T16:31:35;0.98;;;0.45;;
39140;SDS011;24875;48.436;10.298;2023-03-31T16:34:04;5.18;;;0.90;;
39140;SDS011;24875;48.436;10.298;2023-03-31T16:36:33;1.67;;;0.85;;
39140;SDS011;24875;48.436;10.298;2023-03-31T16:39:00;0.50;;;0.50;;
39140;SDS011;24875;48.436;10.298;2023-03-31T16:41:29;1.50;;;0.70;;
39140;SDS011;24875;48.436;10.298;2023-03-31T16:43:56;0.50;;;0.50;;
39140;SDS011;24875;48.436;10.298;2023-03-31T16:46:23;1.60;;;0.50;;
39140;SDS011;24875;48.436;10.298;2023-03-31T16:48:50;1.73;;;1.00;;
39140;SDS011;24875;48.436;10.298;2023-03-31T16:51:17;1.27;;;0.77;;
39140;SDS011;24875;48.436;10.298;2023-03-31T16:53:45;1.90;;;0.60;;
39140;SDS011;24875;48.436;10.298;2023-03-31T16:56:13;4.13;;;0.87;;
39140;SDS011;24875;48.436;10.298;2023-03-31T16:58:39;2.77;;;0.80;;
39140;SDS011;24875;48.436;10.298;2023-03-31T17:01:06;2.03;;;0.83;;
39140;SDS011;24875;48.436;10.298;2023-03-31T17:03:33;1.40;;;0.90;;
39140;SDS011;24875;48.436;10.298;2023-03-31T17:06:04;2.40;;;0.63;;
39140;SDS011;24875;48.436;10.298;2023-03-31T17:08:32;2.60;;;0.67;;
39140;SDS011;24875;48.436;10.298;2023-03-31T17:11:00;2.17;;;1.00;;
39140;SDS011;24875;48.436;10.298;2023-03-31T17:13:28;0.70;;;0.70;;
39140;SDS011;24875;48.436;10.298;2023-03-31T17:15:56;1.20;;;0.90;;
39140;SDS011;24875;48.436;10.298;2023-03-31T17:18:23;2.10;;;0.90;;
39140;SDS011;24875;48.436;10.298;2023-03-31T17:20:50;2.60;;;0.70;;
39140;SDS011;24875;48.436;10.298;2023-03-31T17:23:17;2.20;;;1.10;;
39140;SDS011;24875;48.436;10.298;2023-03-31T17:25:47;1.87;;;0.80;;
39140;SDS011;24875;48.436;10.298;2023-03-31T17:28:15;0.73;;;0.60;;
39140;SDS011;24875;48.436;10.298;2023-03-31T17:30:42;0.83;;;0.60;;
39140;SDS011;24875;48.436;10.298;2023-03-31T17:33:11;6.07;;;1.03;;
39140;SDS011;24875;48.436;10.298;2023-03-31T17:35:39;7.07;;;2.30;;
39140;SDS011;24875;48.436;10.298;2023-03-31T17:38:06;8.20;;;1.13;;
39140;SDS011;24875;48.436;10.298;2023-03-31T17:40:33;4.57;;;1.83;;
39140;SDS011;24875;48.436;10.298;2023-03-31T17:43:00;4.07;;;1.20;;
39140;SDS011;24875;48.436;10.298;2023-03-31T17:45:29;5.20;;;1.20;;
39140;SDS011;24875;48.436;10.298;2023-03-31T17:47:56;7.23;;;1.87;;
39140;SDS011;24875;48.436;10.298;2023-03-31T17:50:23;3.33;;;2.17;;
39140;SDS011;24875;48.436;10.298;2023-03-31T17:52:50;6.93;;;3.07;;
39140;SDS011;24875;48.436;10.298;2023-03-31T17:55:17;7.57;;;2.27;;
39140;SDS011;24875;48.436;10.298;2023-03-31T17:57:44;6.27;;;1.77;;
39140;SDS011;24875;48.436;10.298;2023-03-31T18:00:11;20.30;;;6.40;;
39140;SDS011;24875;48.436;10.298;2023-03-31T18:02:42;5.23;;;0.90;;
39140;SDS011;24875;48.436;10.298;2023-03-31T18:05:09;5.60;;;1.30;;
39140;SDS011;24875;48.436;10.298;2023-03-31T18:07:36;3.30;;;0.70;;
39140;SDS011;24875;48.436;10.298;2023-03-31T18:10:04;3.13;;;1.00;;
39140;SDS011;24875;48.436;10.298;2023-03-31T18:12:32;5.00;;;0.87;;
39140;SDS011;24875;48.436;10.298;2023-03-31T18:15:00;10.80;;;3.57;;
39140;SDS011;24875;48.436;10.298;2023-03-31T18:17:29;28.90;;;10.00;;
39140;SDS011;24875;48.436;10.298;2023-03-31T18:19:57;6.93;;;2.00;;
39140;SDS011;24875;48.436;10.298;2023-03-31T18:22:24;4.00;;;1.70;;
39140;SDS011;24875;48.436;10.298;2023-03-31T18:24:51;20.10;;;6.23;;
39140;SDS011;24875;48.436;10.298;2023-03-31T18:27:17;3.27;;;1.13;;
39140;SDS011;24875;48.436;10.298;2023-03-31T18:29:44;1.73;;;0.90;;
39140;SDS011;24875;48.436;10.298;2023-03-31T18:32:10;3.03;;;1.17;;
39140;SDS011;24875;48.436;10.298;2023-03-31T18:34:37;3.03;;;1.37;;
39140;SDS011;24875;48.436;10.298;2023-03-31T18:37:05;8.77;;;1.90;;
39140;SDS011;24875;48.436;10.298;2023-03-31T18:39:32;2.37;;;1.27;;
39140;SDS011;24875;48.436;10.298;2023-03-31T18:41:58;5.23;;;1.10;;
39140;SDS011;24875;48.436;10.298;2023-03-31T18:44:25;1.30;;;0.60;;
39140;SDS011;24875;48.436;10.298;2023-03-31T18:46:51;2.27;;;0.70;;
39140;SDS011;24875;48.436;10.298;2023-03-31T18:49:18;6.17;;;3.03;;
39140;SDS011;24875;48.436;10.298;2023-03-31T18:51:45;2.77;;;1.33;;
39140;SDS011;24875;48.436;10.298;2023-03-31T18:54:13;3.23;;;1.00;;
39140;SDS011;24875;48.436;10.298;2023-03-31T18:56:39;8.97;;;1.70;;
39140;SDS011;24875;48.436;10.298;2023-03-31T18:59:06;4.67;;;2.80;;
39140;SDS011;24875;48.436;10.298;2023-03-31T19:01:32;3.03;;;1.07;;
39140;SDS011;24875;48.436;10.298;2023-03-31T19:04:04;5.20;;;1.60;;
39140;SDS011;24875;48.436;10.298;2023-03-31T19:06:30;1.10;;;0.93;;
39140;SDS011;24875;48.436;10.298;2023-03-31T19:08:57;1.40;;;0.90;;
39140;SDS011;24875;48.436;10.298;2023-03-31T19:11:26;4.03;;;1.00;;
39140;SDS011;24875;48.436;10.298;2023-03-31T19:13:53;2.43;;;0.80;;
39140;SDS011;24875;48.436;10.298;2023-03-31T19:16:20;2.10;;;0.93;;
39140;SDS011;24875;48.436;10.298;2023-03-31T19:18:48;2.87;;;1.00;;
39140;SDS011;24875;48.436;10.298;2023-03-31T19:21:15;0.70;;;0.60;;
39140;SDS011;24875;48.436;10.298;2023-03-31T19:23:41;7.50;;;1.00;;
39140;SDS011;24875;48.436;10.298;2023-03-31T19:26:09;2.00;;;1.00;;
39140;SDS011;24875;48.436;10.298;2023-03-31T19:28:39;2.87;;;1.13;;
39140;SDS011;24875;48.436;10.298;2023-03-31T19:31:06;4.93;;;0.97;;
39140;SDS011;24875;48.436;10.298;2023-03-31T19:33:32;6.37;;;1.43;;
39140;SDS011;24875;48.436;10.298;2023-03-31T19:35:59;3.63;;;1.60;;
39140;SDS011;24875;48.436;10.298;2023-03-31T19:38:26;4.47;;;1.40;;
39140;SDS011;24875;48.436;10.298;2023-03-31T19:40:56;2.50;;;1.40;;
39140;SDS011;24875;48.436;10.298;2023-03-31T19:43:23;6.83;;;1.53;;
39140;SDS011;24875;48.436;10.298;2023-03-31T19:45:51;4.43;;;1.17;;
39140;SDS011;24875;48.436;10.298;2023-03-31T19:48:19;4.83;;;1.47;;
39140;SDS011;24875;48.436;10.298;2023-03-31T19:50:48;10.00;;;1.63;;
39140;SDS011;24875;48.436;10.298;2023-03-31T19:53:16;5.93;;;1.30;;
39140;SDS011;24875;48.436;10.298;2023-03-31T19:55:43;4.57;;;1.73;;
39140;SDS011;24875;48.436;10.298;2023-03-31T19:58:09;3.33;;;1.33;;
39140;SDS011;24875;48.436;10.298;2023-03-31T20:00:37;3.73;;;1.50;;
39140;SDS011;24875;48.436;10.298;2023-03-31T20:03:05;5.37;;;1.20;;
39140;SDS011;24875;48.436;10.298;2023-03-31T20:05:32;3.47;;;0.77;;
39140;SDS011;24875;48.436;10.298;2023-03-31T20:07:58;3.13;;;1.10;;
39140;SDS011;24875;48.436;10.298;2023-03-31T20:10:25;3.17;;;0.87;;
39140;SDS011;24875;48.436;10.298;2023-03-31T20:12:51;5.60;;;0.87;;
39140;SDS011;24875;48.436;10.298;2023-03-31T20:15:18;5.23;;;1.47;;
39140;SDS011;24875;48.436;10.298;2023-03-31T20:17:44;5.00;;;0.73;;
39140;SDS011;24875;48.436;10.298;2023-03-31T20:20:12;3.90;;;0.87;;
39140;SDS011;24875;48.436;10.298;2023-03-31T20:22:39;3.57;;;0.60;;
39140;SDS011;24875;48.436;10.298;2023-03-31T20:25:06;1.33;;;0.50;;
39140;SDS011;24875;48.436;10.298;2023-03-31T20:27:33;3.20;;;0.70;;
39140;SDS011;24875;48.436;10.298;2023-03-31T20:29:59;5.10;;;0.90;;
39140;SDS011;24875;48.436;10.298;2023-03-31T20:32:26;1.07;;;0.60;;
39140;SDS011;24875;48.436;10.298;2023-03-31T20:34:52;7.73;;;0.80;;
39140;SDS011;24875;48.436;10.298;2023-03-31T20:37:20;4.20;;;0.77;;
39140;SDS011;24875;48.436;10.298;2023-03-31T20:39:47;2.33;;;0.90;;
39140;SDS011;24875;48.436;10.298;2023-03-31T20:42:14;1.03;;;0.87;;
39140;SDS011;24875;48.436;10.298;2023-03-31T20:44:40;0.50;;;0.50;;
39140;SDS011;24875;48.436;10.298;2023-03-31T20:47:07;0.70;;;0.70;;
39140;SDS011;24875;48.436;10.298;2023-03-31T20:49:33;1.37;;;0.80;;
39140;SDS011;24875;48.436;10.298;2023-03-31T20:52:00;1.40;;;0.60;;
39140;SDS011;24875;48.436;10.298;2023-03-31T20:54:28;0.80;;;0.80;;
39140;SDS011;24875;48.436;10.298;2023-03-31T20:56:54;1.47;;;0.87;;
39140;SDS011;24875;48.436;10.298;2023-03-31T20:59:21;0.60;;;0.60;;
39140;SDS011;24875;48.436;10.298;2023-03-31T21:01:48;1.17;;;0.50;;
39140;SDS011;24875;48.436;10.298;2023-03-31T21:04:14;4.27;;;1.07;;
39140;SDS011;24875;48.436;10.298;2023-03-31T21:06:42;1.17;;;0.80;;
39140;SDS011;24875;48.436;10.298;2023-03-31T21:09:10;0.67;;;0.60;;
39140;SDS011;24875;48.436;10.298;2023-03-31T21:11:38;5.37;;;0.80;;
39140;SDS011;24875;48.436;10.298;2023-03-31T21:14:05;1.17;;;0.60;;
39140;SDS011;24875;48.436;10.298;2023-03-31T21:16:33;0.77;;;0.57;;
39140;SDS011;24875;48.436;10.298;2023-03-31T21:18:59;1.27;;;0.60;;